Time;durP1;ratioP1;P1;durP2;ratioP2;P2;SDS_P1;SDS_P2;PMS_P1;PMS_P2;Temp;Humidity;BMP_temperature;BMP_pressure;BME280_temperature;BME280_humidity;BME280_pressure;Samples;Min_cycle;Max_cycle;Signal;HPM_P1;HPM_P2
2022/01/05 00:01:23;;;;;;;21.93;9.97;;;;;;;2.75;100.00;97915.72;5110706;22;20252;-79
2022/01/05 00:03:50;;;;;;;25.07;10.67;;;;;;;2.72;100.00;97912.63;5100607;22;22418;-78
2022/01/05 00:06:17;;;;;;;25.33;11.50;;;;;;;2.70;100.00;97910.13;5121090;22;20402;-78
2022/01/05 00:08:43;;;;;;;32.67;13.43;;;;;;;2.73;100.00;97914.25;5118079;22;20205;-77
2022/01/05 00:11:10;;;;;;;34.80;14.40;;;;;;;2.66;100.00;97921.13;5115098;22;22742;-77
2022/01/05 00:13:37;;;;;;;35.37;14.30;;;;;;;2.61;100.00;97926.81;5111383;22;20319;-78
2022/01/05 00:16:04;;;;;;;37.03;14.57;;;;;;;2.65;100.00;97930.78;5116627;22;20202;-78
2022/01/05 00:18:32;;;;;;;38.23;14.70;;;;;;;2.63;100.00;97935.38;5110118;22;22086;-78
2022/01/05 00:21:00;;;;;;;35.97;14.27;;;;;;;2.63;100.00;97940.63;5116857;22;20205;-78
2022/01/05 00:23:26;;;;;;;35.27;14.47;;;;;;;2.68;100.00;97940.97;5097303;22;20335;-79
2022/01/05 00:25:53;;;;;;;31.73;13.83;;;;;;;2.67;100.00;97941.97;5114615;22;20197;-79
2022/01/05 00:28:19;;;;;;;37.43;15.07;;;;;;;2.70;100.00;97940.84;5114320;22;21707;-77
2022/01/05 00:30:46;;;;;;;36.77;14.27;;;;;;;2.77;100.00;97949.72;5118289;22;20267;-77
2022/01/05 00:33:14;;;;;;;38.33;15.80;;;;;;;2.71;100.00;97952.97;5115780;22;20367;-77
2022/01/05 00:35:42;;;;;;;35.43;15.00;;;;;;;2.71;100.00;97955.59;5112236;22;20214;-77
2022/01/05 00:38:08;;;;;;;40.00;17.20;;;;;;;2.74;100.00;97957.94;5088287;22;24787;-77
2022/01/05 00:40:35;;;;;;;40.47;17.70;;;;;;;2.77;100.00;97952.34;5077772;22;20343;-77
2022/01/05 00:43:01;;;;;;;45.87;17.90;;;;;;;2.78;100.00;97959.25;5120037;22;20216;-78
2022/01/05 00:45:28;;;;;;;40.77;18.73;;;;;;;2.84;100.00;97966.50;5151129;22;21090;-77
2022/01/05 00:47:55;;;;;;;42.30;20.33;;;;;;;2.84;100.00;97963.06;5117594;22;25183;-77
2022/01/05 00:50:21;;;;;;;42.33;20.47;;;;;;;2.85;100.00;97960.25;5118722;22;20277;-79
2022/01/05 00:52:48;;;;;;;46.17;21.37;;;;;;;2.90;100.00;97972.91;5113998;22;20574;-77
2022/01/05 00:55:14;;;;;;;46.93;21.30;;;;;;;2.91;100.00;97971.94;5076368;22;20210;-78
2022/01/05 00:57:41;;;;;;;45.87;19.10;;;;;;;2.94;100.00;97974.25;5111580;22;20209;-77
2022/01/05 01:00:08;;;;;;;38.30;17.27;;;;;;;3.09;100.00;97971.84;5116122;22;20201;-77
2022/01/05 01:02:35;;;;;;;37.37;16.40;;;;;;;3.05;100.00;97981.88;5069324;22;20206;-78
2022/01/05 01:05:02;;;;;;;34.73;15.70;;;;;;;3.13;100.00;97988.94;5094494;22;20213;-76
2022/01/05 01:07:28;;;;;;;33.80;15.47;;;;;;;3.14;100.00;97990.63;5129859;22;20210;-77
2022/01/05 01:09:55;;;;;;;27.67;14.10;;;;;;;3.17;100.00;97985.84;5111946;22;20209;-78
2022/01/05 01:12:21;;;;;;;29.97;12.93;;;;;;;3.14;100.00;97986.19;5074631;22;20202;-79
2022/01/05 01:14:48;;;;;;;27.90;13.73;;;;;;;3.17;100.00;97992.91;5110659;22;20202;-77
2022/01/05 01:17:15;;;;;;;29.60;13.53;;;;;;;3.19;100.00;97984.88;5093243;22;20250;-77
2022/01/05 01:19:41;;;;;;;30.73;13.53;;;;;;;3.18;100.00;97986.66;5112345;22;20209;-78
2022/01/05 01:22:08;;;;;;;33.80;13.93;;;;;;;3.20;100.00;97987.34;5118682;22;21312;-78
2022/01/05 01:24:34;;;;;;;33.60;14.53;;;;;;;3.24;100.00;97986.03;5137673;22;20274;-77
2022/01/05 01:27:01;;;;;;;34.43;14.03;;;;;;;3.24;100.00;97998.38;5112009;22;20228;-77
2022/01/05 01:29:27;;;;;;;36.00;14.30;;;;;;;3.27;100.00;97996.22;5132769;22;20208;-77
2022/01/05 01:31:54;;;;;;;34.27;13.87;;;;;;;3.25;100.00;97992.94;5109611;22;20272;-76
2022/01/05 01:34:20;;;;;;;38.83;15.20;;;;;;;3.27;100.00;98003.28;5108460;22;20377;-76
2022/01/05 01:36:47;;;;;;;36.30;14.57;;;;;;;3.33;100.00;98000.88;5116038;22;22273;-77
2022/01/05 01:39:13;;;;;;;35.20;15.40;;;;;;;3.32;100.00;97993.94;5087087;22;20210;-79
2022/01/05 01:41:40;;;;;;;40.93;16.17;;;;;;;3.32;100.00;97996.56;5093178;22;20257;-77
2022/01/05 01:44:07;;;;;;;35.80;14.77;;;;;;;3.33;100.00;98000.88;5094099;22;20276;-77
2022/01/05 01:46:33;;;;;;;37.83;15.17;;;;;;;3.36;100.00;98013.69;5116677;22;20251;-80
2022/01/05 01:49:00;;;;;;;41.67;16.37;;;;;;;3.38;100.00;98014.34;5109733;22;22390;-80
2022/01/05 01:51:26;;;;;;;39.90;16.03;;;;;;;3.40;100.00;98018.63;5109930;22;20573;-79
2022/01/05 01:53:53;;;;;;;38.87;16.13;;;;;;;3.41;100.00;98020.28;5114273;22;20247;-78
2022/01/05 01:56:20;;;;;;;50.17;17.50;;;;;;;3.41;100.00;98017.63;5118593;22;20198;-78
2022/01/05 01:58:48;;;;;;;41.73;16.27;;;;;;;3.43;100.00;98015.69;5098018;22;20985;-77
2022/01/05 02:01:16;;;;;;;42.07;16.90;;;;;;;3.46;100.00;98013.53;5111372;22;20385;-77
2022/01/05 02:03:43;;;;;;;44.50;17.37;;;;;;;3.45;100.00;98029.50;5097697;22;20231;-80
2022/01/05 02:06:10;;;;;;;45.60;17.60;;;;;;;3.46;100.00;98018.78;5113890;22;20293;-79
2022/01/05 02:08:37;;;;;;;45.67;18.63;;;;;;;3.50;100.00;98011.44;5116681;22;20244;-79
2022/01/05 02:11:05;;;;;;;45.97;18.57;;;;;;;3.53;100.00;98019.00;5108256;22;20758;-79
2022/01/05 02:13:32;;;;;;;40.30;18.03;;;;;;;3.53;100.00;98021.63;5104196;22;20205;-80
2022/01/05 02:15:58;;;;;;;53.73;20.10;;;;;;;3.54;100.00;98025.91;5131235;22;20206;-79
2022/01/05 02:21:02;;;;;;;46.13;18.60;;;;;;;3.62;100.00;98035.63;5089005;22;20208;-78
2022/01/05 02:23:28;;;;;;;51.67;20.13;;;;;;;3.63;100.00;98032.84;5110616;22;20210;-79
2022/01/05 02:25:55;;;;;;;46.27;20.00;;;;;;;3.65;100.00;98033.47;5089818;22;20229;-81
2022/01/05 02:28:21;;;;;;;51.83;20.07;;;;;;;3.68;100.00;98022.66;5117042;22;20214;-78
2022/01/05 02:30:52;;;;;;;51.10;19.17;;;;;;;3.63;100.00;98032.84;5115575;22;20264;-79
2022/01/05 02:33:19;;;;;;;49.73;19.97;;;;;;;3.72;100.00;98031.03;5113513;22;20279;-78
2022/01/05 02:35:46;;;;;;;53.90;20.83;;;;;;;3.77;100.00;98034.84;5114343;22;20206;-78
2022/01/05 02:38:17;;;;;;;44.70;19.47;;;;;;;3.77;100.00;98029.59;5127587;22;20206;-79
2022/01/05 02:40:44;;;;;;;53.83;21.27;;;;;;;3.80;100.00;98029.25;5089734;22;20212;-78
2022/01/05 02:43:10;;;;;;;54.23;20.37;;;;;;;3.78;100.00;98033.84;5102876;22;21286;-79
2022/01/05 02:45:37;;;;;;;50.83;20.83;;;;;;;3.83;100.00;98038.63;5115141;22;20577;-79
2022/01/05 02:48:04;;;;;;;53.27;20.73;;;;;;;3.86;100.00;98046.19;5142001;22;20209;-78
2022/01/05 02:50:31;;;;;;;52.97;21.90;;;;;;;3.85;100.00;98046.38;5114297;22;20807;-79
2022/01/05 02:52:57;;;;;;;49.50;20.73;;;;;;;3.83;100.00;98048.34;5122590;22;20205;-79
2022/01/05 02:55:24;;;;;;;50.30;21.43;;;;;;;3.91;100.00;98050.97;5110089;22;20202;-78
2022/01/05 02:57:51;;;;;;;49.70;21.73;;;;;;;3.89;100.00;98059.03;5121922;22;20307;-78
2022/01/05 03:00:17;;;;;;;56.30;23.17;;;;;;;3.93;100.00;98054.25;5135536;22;23949;-79
2022/01/05 03:02:44;;;;;;;51.40;22.93;;;;;;;3.94;100.00;98067.28;5127692;22;20237;-78
2022/01/05 03:05:11;;;;;;;48.03;21.30;;;;;;;3.92;100.00;98060.53;5071788;22;20256;-78
2022/01/05 03:07:40;;;;;;;50.33;22.17;;;;;;;3.93;100.00;98054.25;5098819;22;20201;-79
2022/01/05 03:10:08;;;;;;;52.93;22.67;;;;;;;3.93;100.00;98063.00;5115343;22;20661;-79
2022/01/05 03:12:39;;;;;;;57.13;23.33;;;;;;;3.99;100.00;98077.31;5101387;22;21760;-78
2022/01/05 03:15:07;;;;;;;56.43;21.90;;;;;;;3.96;100.00;98070.56;5112961;22;20216;-77
2022/01/05 03:17:33;;;;;;;58.80;22.40;;;;;;;4.00;100.00;98066.63;5112570;22;20725;-77
2022/01/05 03:20:00;;;;;;;54.40;23.63;;;;;;;4.04;100.00;98063.66;5114940;22;20255;-79
2022/01/05 03:22:26;;;;;;;52.77;23.27;;;;;;;4.05;100.00;98058.25;5102663;22;21750;-78
2022/01/05 03:24:53;;;;;;;54.23;23.43;;;;;;;3.98;100.00;98062.50;5108754;22;20311;-79
2022/01/05 03:27:20;;;;;;;54.40;23.30;;;;;;;4.04;100.00;98067.13;5110886;22;20203;-77
2022/01/05 03:29:46;;;;;;;56.10;23.83;;;;;;;4.09;100.00;98064.81;5109073;22;21020;-76
2022/01/05 03:32:14;;;;;;;51.17;23.50;;;;;;;4.11;100.00;98057.59;5152678;22;21161;-77
2022/01/05 03:34:41;;;;;;;52.37;24.40;;;;;;;4.13;100.00;98058.25;5112683;22;20210;-76
2022/01/05 03:37:08;;;;;;;60.40;24.90;;;;;;;4.06;100.00;98041.47;5113885;22;20202;-79
2022/01/05 03:39:34;;;;;;;55.60;24.10;;;;;;;4.13;100.00;98055.63;5118377;22;21250;-77
2022/01/05 03:42:02;;;;;;;57.90;25.07;;;;;;;4.09;100.00;98049.03;5115879;22;20300;-77
2022/01/05 03:44:28;;;;;;;51.40;25.17;;;;;;;4.09;100.00;98042.94;5113919;22;24930;-77
2022/01/05 03:46:55;;;;;;;54.47;24.73;;;;;;;4.10;100.00;98039.34;5139546;22;21564;-77
2022/01/05 03:49:23;;;;;;;53.00;24.80;;;;;;;4.13;100.00;98050.34;5096582;22;20202;-78
2022/01/05 03:51:49;;;;;;;52.40;25.63;;;;;;;4.21;100.00;98049.53;5108672;22;21191;-76
2022/01/05 03:54:16;;;;;;;53.53;25.53;;;;;;;4.18;100.00;98042.78;5113948;22;20225;-75
2022/01/05 03:56:42;;;;;;;52.83;25.03;;;;;;;4.27;100.00;98053.34;5114346;22;20425;-77
2022/01/05 03:59:09;;;;;;;59.27;26.77;;;;;;;4.22;100.00;98054.66;5099922;22;22091;-78
2022/01/05 04:01:36;;;;;;;54.73;25.17;;;;;;;4.16;100.00;98050.03;5110452;22;20206;-79
2022/01/05 04:04:02;;;;;;;56.00;25.63;;;;;;;4.22;100.00;98052.00;5098338;22;21471;-78
2022/01/05 04:06:29;;;;;;;54.97;27.23;;;;;;;4.25;100.00;98047.41;5118209;22;20202;-76
2022/01/05 04:08:55;;;;;;;49.47;25.80;;;;;;;4.26;100.00;98043.78;5109139;22;21431;-78
2022/01/05 04:11:22;;;;;;;53.10;25.63;;;;;;;4.19;100.00;98049.72;5120386;22;20202;-75
2022/01/05 04:13:48;;;;;;;58.07;27.53;;;;;;;4.14;100.00;98038.84;5105958;22;20619;-77
2022/01/05 04:16:15;;;;;;;56.80;25.27;;;;;;;4.20;100.00;98050.53;5108655;22;21201;-76
2022/01/05 04:18:41;;;;;;;52.80;26.10;;;;;;;4.13;100.00;98042.47;5092005;22;20291;-76
2022/01/05 04:21:12;;;;;;;56.17;26.83;;;;;;;4.04;100.00;98043.44;5116621;22;20212;-78
2022/01/05 04:23:38;;;;;;;52.63;26.07;;;;;;;4.00;100.00;98044.75;5096419;22;20201;-77
2022/01/05 04:26:05;;;;;;;51.93;25.10;;;;;;;3.93;100.00;98034.06;5109462;22;21144;-77
2022/01/05 04:28:32;;;;;;;55.03;26.53;;;;;;;3.89;100.00;98043.25;5108251;22;21348;-77
2022/01/05 04:30:58;;;;;;;53.77;26.33;;;;;;;3.86;100.00;98045.38;5118168;22;20433;-79
2022/01/05 04:33:25;;;;;;;58.10;25.90;;;;;;;3.96;100.00;98057.41;5110406;22;20410;-78
2022/01/05 04:36:11;;;;;;;51.53;26.17;;;;;;;3.87;100.00;98057.56;5122767;22;26976;-76
2022/01/05 04:38:38;;;;;;;56.93;27.03;;;;;;;3.89;100.00;98063.50;5112794;22;20650;-77
2022/01/05 04:41:04;;;;;;;54.20;27.37;;;;;;;3.90;100.00;98065.94;5131597;22;20217;-78
2022/01/05 04:43:32;;;;;;;52.33;26.67;;;;;;;3.84;100.00;98065.75;5129239;22;20235;-78
2022/01/05 04:45:58;;;;;;;57.77;27.53;;;;;;;3.75;100.00;98065.75;5122151;22;20611;-76
2022/01/05 04:48:25;;;;;;;50.53;25.57;;;;;;;3.79;100.00;98063.59;5112530;22;20208;-76
2022/01/05 04:50:52;;;;;;;57.17;28.27;;;;;;;3.77;100.00;98069.03;5094079;22;20253;-79
2022/01/05 04:53:18;;;;;;;58.73;27.70;;;;;;;3.77;100.00;98076.13;5101284;22;20278;-79
2022/01/05 04:55:45;;;;;;;54.07;28.37;;;;;;;3.73;100.00;98080.84;5120067;22;20198;-77
2022/01/05 04:58:11;;;;;;;55.97;28.40;;;;;;;3.79;100.00;98096.00;5116359;22;20498;-78
2022/01/05 05:00:38;;;;;;;56.10;27.90;;;;;;;3.80;100.00;98095.03;5111960;22;20565;-78
2022/01/05 05:03:05;;;;;;;57.87;28.43;;;;;;;3.87;100.00;98078.59;5106749;22;21156;-80
2022/01/05 05:05:34;;;;;;;54.37;28.43;;;;;;;3.89;100.00;98072.19;5111989;22;20205;-77
2022/01/05 05:08:01;;;;;;;55.40;27.90;;;;;;;3.89;100.00;98080.09;5115658;22;20209;-78
2022/01/05 05:10:27;;;;;;;55.20;28.57;;;;;;;3.87;100.00;98070.72;5096994;22;20198;-78
2022/01/05 05:12:54;;;;;;;56.80;28.40;;;;;;;3.88;100.00;98062.63;5090990;22;20319;-78
2022/01/05 05:15:20;;;;;;;58.97;27.97;;;;;;;3.93;100.00;98063.00;5098834;22;20209;-79
2022/01/05 05:17:47;;;;;;;58.20;28.50;;;;;;;3.96;100.00;98064.50;5089915;22;20205;-77
2022/01/05 05:20:14;;;;;;;54.53;28.80;;;;;;;3.98;100.00;98067.75;5099580;22;20228;-77
2022/01/05 05:22:42;;;;;;;59.63;29.57;;;;;;;3.92;100.00;98084.19;5091277;22;20445;-78
2022/01/05 05:25:09;;;;;;;60.93;27.87;;;;;;;3.89;100.00;98095.06;5119269;22;20206;-78
2022/01/05 05:27:36;;;;;;;59.10;28.33;;;;;;;3.91;100.00;98109.69;5117239;22;20306;-79
2022/01/05 05:30:22;;;;;;;60.47;29.60;;;;;;;3.95;100.00;98116.25;5128675;22;20272;-77
2022/01/05 05:32:49;;;;;;;54.97;27.33;;;;;;;3.93;100.00;98122.66;5112836;22;21144;-78
2022/01/05 05:35:16;;;;;;;59.20;29.03;;;;;;;3.89;100.00;98111.66;5092949;22;20655;-78
2022/01/05 05:37:43;;;;;;;54.10;27.97;;;;;;;3.90;100.00;98113.28;5117632;22;22012;-78
2022/01/05 05:40:10;;;;;;;57.97;28.47;;;;;;;3.89;100.00;98116.09;5097865;22;20274;-78
2022/01/05 05:42:36;;;;;;;61.47;29.00;;;;;;;3.90;100.00;98123.00;5116497;22;20202;-78
2022/01/05 05:45:03;;;;;;;57.73;28.40;;;;;;;3.96;100.00;98128.44;5113683;22;20267;-78
2022/01/05 05:47:30;;;;;;;56.50;28.77;;;;;;;3.89;100.00;98137.16;5093911;22;23415;-78
2022/01/05 05:49:56;;;;;;;58.13;27.90;;;;;;;3.89;100.00;98142.41;5110438;22;20202;-78
2022/01/05 05:52:23;;;;;;;56.97;29.73;;;;;;;3.93;100.00;98148.97;5113534;22;20233;-78
2022/01/05 05:54:49;;;;;;;62.77;30.13;;;;;;;3.88;100.00;98144.19;5092629;22;22689;-80
2022/01/05 05:57:36;;;;;;;56.20;29.17;;;;;;;3.88;100.00;98157.34;5136533;22;20705;-78
2022/01/05 06:00:05;;;;;;;55.63;28.70;;;;;;;3.93;100.00;98160.34;5087085;22;20213;-80
2022/01/05 06:02:32;;;;;;;61.03;30.17;;;;;;;3.93;100.00;98149.84;5127009;22;21093;-76
2022/01/05 06:04:59;;;;;;;53.57;28.23;;;;;;;3.93;100.00;98146.34;5081904;23;21635;-77
2022/01/05 06:07:26;;;;;;;53.07;27.87;;;;;;;4.03;100.00;98154.97;5128115;22;20202;-79
2022/01/05 06:09:52;;;;;;;57.10;28.47;;;;;;;4.01;100.00;98159.56;5109438;22;20211;-76
2022/01/05 06:12:19;;;;;;;58.97;30.30;;;;;;;4.05;100.00;98162.69;5115039;22;20202;-78
2022/01/05 06:14:45;;;;;;;56.67;28.53;;;;;;;4.12;100.00;98168.94;5122500;22;20210;-79
2022/01/05 06:17:12;;;;;;;60.03;28.43;;;;;;;4.09;100.00;98170.09;5120737;22;20622;-77
2022/01/05 06:19:39;;;;;;;53.97;28.07;;;;;;;4.24;100.00;98167.69;5105203;22;21494;-78
2022/01/05 06:22:06;;;;;;;46.10;26.23;;;;;;;4.31;100.00;98173.94;5128656;22;21159;-77
2022/01/05 06:24:35;;;;;;;46.53;24.63;;;;;;;4.46;100.00;98181.22;5131076;22;21642;-78
2022/01/05 06:27:02;;;;;;;42.13;23.80;;;;;;;4.52;100.00;98185.81;5131826;22;20206;-76
2022/01/05 06:29:29;;;;;;;42.60;24.40;;;;;;;4.38;100.00;98180.22;5121327;22;20198;-77
2022/01/05 06:31:55;;;;;;;41.57;24.10;;;;;;;4.21;100.00;98187.25;5135731;22;20940;-78
2022/01/05 06:34:22;;;;;;;40.43;21.37;;;;;;;4.21;100.00;98192.53;5120057;22;22260;-77
2022/01/05 06:36:49;;;;;;;36.73;20.27;;;;;;;4.18;100.00;98192.00;5100864;22;20250;-82
2022/01/05 06:39:16;;;;;;;36.97;19.50;;;;;;;4.14;100.00;98190.66;5141410;22;20205;-79
2022/01/05 06:41:42;;;;;;;34.43;19.23;;;;;;;4.10;100.00;98198.06;5112070;22;20261;-77
2022/01/05 06:44:09;;;;;;;36.27;21.20;;;;;;;4.10;100.00;98195.44;5155493;22;21441;-78
2022/01/05 06:46:35;;;;;;;34.37;20.07;;;;;;;4.17;100.00;98188.56;5120155;22;20201;-78
2022/01/05 06:49:02;;;;;;;34.13;20.67;;;;;;;4.14;100.00;98188.84;5125133;22;20252;-79
2022/01/05 06:51:29;;;;;;;37.13;21.70;;;;;;;4.08;100.00;98183.44;5132269;22;21477;-80
2022/01/05 06:53:55;;;;;;;39.90;22.97;;;;;;;4.01;100.00;98193.75;5092690;22;20461;-77
2022/01/05 06:56:22;;;;;;;41.97;23.73;;;;;;;4.00;100.00;98197.34;5087447;22;20206;-80
2022/01/05 06:58:49;;;;;;;46.37;24.83;;;;;;;4.05;100.00;98204.78;5091848;22;20229;-77
2022/01/05 07:01:16;;;;;;;41.53;24.07;;;;;;;4.06;100.00;98204.63;5128261;22;20232;-78
2022/01/05 07:03:42;;;;;;;47.27;25.57;;;;;;;4.08;100.00;98205.31;5134731;22;20209;-77
2022/01/05 07:06:09;;;;;;;40.93;24.47;;;;;;;4.02;100.00;98211.19;5159309;22;20241;-76
2022/01/05 07:08:36;;;;;;;46.37;25.00;;;;;;;3.88;100.00;98209.16;5104144;22;22900;-76
2022/01/05 07:11:02;;;;;;;45.00;24.50;;;;;;;4.01;100.00;98199.03;5119822;22;22218;-75
2022/01/05 07:13:29;;;;;;;47.97;25.43;;;;;;;3.90;100.00;98186.16;5110127;22;21173;-77
2022/01/05 07:15:55;;;;;;;43.60;23.87;;;;;;;3.89;100.00;98174.81;5114750;22;24878;-76
2022/01/05 07:18:22;;;;;;;41.40;24.27;;;;;;;3.99;100.00;98190.47;5121738;22;20202;-75
2022/01/05 07:20:48;;;;;;;40.20;23.07;;;;;;;3.98;100.00;98188.78;5101973;22;21322;-76
2022/01/05 07:23:15;;;;;;;41.03;22.43;;;;;;;3.94;100.00;98198.00;5120103;22;21347;-75
2022/01/05 07:25:42;;;;;;;39.97;22.03;;;;;;;4.02;100.00;98195.41;5129016;22;20273;-76
2022/01/05 07:28:10;;;;;;;42.50;23.07;;;;;;;3.92;100.00;98194.72;5102422;22;21895;-74
2022/01/05 07:30:37;;;;;;;42.63;23.23;;;;;;;3.90;100.00;98192.22;5093900;22;20205;-75
2022/01/05 07:33:03;;;;;;;41.47;22.90;;;;;;;3.96;100.00;98196.03;5085784;22;21828;-76
2022/01/05 07:35:30;;;;;;;38.97;22.20;;;;;;;4.06;100.00;98195.91;5113048;22;20213;-76
2022/01/05 07:37:57;;;;;;;43.47;23.23;;;;;;;4.00;100.00;98197.34;5096783;22;22325;-75
2022/01/05 07:40:23;;;;;;;48.30;24.17;;;;;;;3.97;100.00;98202.94;5094420;22;20209;-76
2022/01/05 07:42:50;;;;;;;44.50;24.63;;;;;;;3.95;100.00;98199.66;5108782;22;20202;-75
2022/01/05 07:45:17;;;;;;;43.77;23.93;;;;;;;4.01;100.00;98191.13;5104737;22;22459;-77
2022/01/05 07:47:44;;;;;;;44.17;24.60;;;;;;;4.13;100.00;98194.28;5118048;22;20201;-77
2022/01/05 07:50:14;;;;;;;47.70;25.27;;;;;;;4.03;100.00;98189.16;5133473;22;21281;-76
2022/01/05 07:52:42;;;;;;;45.03;23.77;;;;;;;4.06;100.00;98201.19;5106252;22;20273;-77
2022/01/05 07:55:09;;;;;;;42.70;23.63;;;;;;;4.13;100.00;98196.94;5100783;22;21583;-78
2022/01/05 07:57:36;;;;;;;43.80;24.17;;;;;;;4.27;100.00;98203.41;5121569;22;20202;-77
2022/01/05 08:00:05;;;;;;;41.30;24.07;;;;;;;4.36;100.00;98197.16;5103634;22;20327;-77
2022/01/05 08:02:32;;;;;;;43.33;23.70;;;;;;;4.22;100.00;98196.78;5123095;22;20258;-76
2022/01/05 08:04:59;;;;;;;49.03;23.43;;;;;;;4.09;100.00;98191.16;5109297;22;20209;-75
2022/01/05 08:07:26;;;;;;;40.33;23.47;;;;;;;4.09;100.00;98188.50;5115362;22;21023;-75
2022/01/05 08:09:52;;;;;;;46.47;25.13;;;;;;;4.22;100.00;98181.00;5141279;22;25882;-76
2022/01/05 08:12:19;;;;;;;40.77;22.47;;;;;;;4.27;100.00;98177.06;5118266;22;20872;-78
2022/01/05 08:14:46;;;;;;;42.50;23.33;;;;;;;4.29;100.00;98177.75;5103887;22;22057;-83
2022/01/05 08:17:12;;;;;;;45.10;23.77;;;;;;;4.39;100.00;98181.84;5112583;22;21465;-75
2022/01/05 08:19:39;;;;;;;43.33;22.93;;;;;;;4.55;100.00;98173.16;5164417;22;20206;-80
2022/01/05 08:22:05;;;;;;;39.10;22.73;;;;;;;4.65;100.00;98179.09;5108566;22;20197;-78
2022/01/05 08:24:32;;;;;;;39.70;22.10;;;;;;;4.65;100.00;98173.81;5130073;22;23029;-85
2022/01/05 08:26:59;;;;;;;36.93;21.93;;;;;;;4.77;100.00;98179.59;5116283;22;20198;-79
2022/01/05 08:29:26;;;;;;;42.57;22.13;;;;;;;4.82;100.00;98176.47;5107113;23;20209;-79
2022/01/05 08:31:53;;;;;;;42.93;20.73;;;;;;;4.63;100.00;98188.16;5098908;22;21193;-77
2022/01/05 08:34:20;;;;;;;37.47;21.20;;;;;;;4.52;100.00;98184.03;5110165;22;25966;-78
2022/01/05 08:36:47;;;;;;;37.20;20.87;;;;;;;4.38;100.00;98182.03;5134120;22;20202;-78
2022/01/05 08:39:14;;;;;;;35.50;19.87;;;;;;;4.44;100.00;98176.09;5184859;22;20851;-82
2022/01/05 08:41:40;;;;;;;37.77;21.37;;;;;;;4.38;100.00;98185.50;5147223;22;20202;-82
2022/01/05 08:44:07;;;;;;;41.43;21.93;;;;;;;4.60;100.00;98186.66;5123881;22;20285;-84
2022/01/05 08:46:34;;;;;;;44.00;26.57;;;;;;;4.62;100.00;98189.97;5128564;22;20234;-80
2022/01/05 08:49:00;;;;;;;42.77;23.97;;;;;;;4.56;100.00;98187.97;5123821;22;20206;-78
2022/01/05 08:51:27;;;;;;;47.00;24.63;;;;;;;4.43;100.00;98195.53;5131345;22;20198;-82
2022/01/05 08:53:54;;;;;;;41.93;23.60;;;;;;;4.69;100.00;98195.41;5119152;22;20217;-79
2022/01/05 08:56:23;;;;;;;43.70;23.90;;;;;;;4.78;100.00;98198.91;5202825;22;20325;-84
2022/01/05 08:58:50;;;;;;;40.67;22.33;;;;;;;4.65;100.00;98191.44;5120703;22;21481;-80
2022/01/05 09:01:17;;;;;;;40.60;22.23;;;;;;;4.52;100.00;98197.22;5181469;22;21509;-81
2022/01/05 09:03:44;;;;;;;42.93;22.80;;;;;;;4.56;100.00;98187.97;5135129;22;22885;-79
2022/01/05 09:06:11;;;;;;;40.43;22.00;;;;;;;4.70;100.00;98188.34;5171906;22;20208;-78
2022/01/05 09:08:38;;;;;;;41.77;23.37;;;;;;;4.61;100.00;98196.25;5172530;22;20217;-80
2022/01/05 09:11:07;;;;;;;41.20;23.30;;;;;;;4.63;100.00;98193.41;5125655;22;20570;-81
2022/01/05 09:13:34;;;;;;;42.90;21.80;;;;;;;4.53;100.00;98190.94;5142654;22;20201;-80
2022/01/05 09:16:01;;;;;;;45.37;23.70;;;;;;;4.46;100.00;98200.47;5112549;22;20202;-79
2022/01/05 09:18:28;;;;;;;40.83;23.23;;;;;;;4.40;100.00;98193.22;5104737;22;20253;-80
2022/01/05 09:20:55;;;;;;;41.40;22.60;;;;;;;4.65;100.00;98194.91;5126902;22;20458;-78
2022/01/05 09:23:22;;;;;;;39.63;22.23;;;;;;;4.82;100.00;98203.69;5118515;22;21192;-78
2022/01/05 09:25:49;;;;;;;40.53;23.43;;;;;;;4.81;100.00;98195.91;5107536;22;20497;-79
2022/01/05 09:28:15;;;;;;;38.57;22.10;;;;;;;4.92;100.00;98192.97;5115531;22;20216;-81
2022/01/05 09:30:45;;;;;;;38.73;21.07;;;;;;;5.01;100.00;98194.63;5116403;22;20206;-81
2022/01/05 09:33:14;;;;;;;42.53;24.53;;;;;;;4.96;100.00;98191.63;5126012;22;20244;-76
2022/01/05 09:35:41;;;;;;;42.67;22.50;;;;;;;4.75;100.00;98191.28;5107240;22;22083;-75
2022/01/05 09:38:21;;;;;;;38.57;22.27;;;;;;;4.78;100.00;98181.28;5097124;22;20206;-79
2022/01/05 09:43:48;;;;;;;36.60;21.63;;;;;;;4.79;100.00;98182.09;5125454;22;20202;-79
2022/01/05 09:46:47;;;;;;;34.83;19.57;;;;;;;4.88;100.00;98185.56;5105532;22;20205;-78
2022/01/05 09:49:18;;;;;;;39.13;20.77;;;;;;;5.13;100.00;98189.00;5062684;22;20556;-81
2022/01/05 09:51:51;;;;;;;38.03;19.50;;;;;;;5.14;100.00;98193.28;5097219;22;20943;-79
2022/01/05 09:54:18;;;;;;;35.57;20.33;;;;;;;5.26;100.00;98189.31;5148095;22;20206;-77
2022/01/05 09:56:58;;;;;;;32.13;17.27;;;;;;;5.35;100.00;98185.69;5131630;22;20248;-79
2022/01/05 09:59:25;;;;;;;27.87;17.13;;;;;;;5.41;100.00;98192.94;5141767;22;20662;-79
2022/01/05 10:01:51;;;;;;;28.90;16.63;;;;;;;5.45;100.00;98199.50;5117366;22;20562;-78
2022/01/05 10:04:18;;;;;;;30.37;16.57;;;;;;;5.46;100.00;98201.16;5091714;22;20263;-81
2022/01/05 10:06:46;;;;;;;30.70;16.97;;;;;;;5.45;100.00;98202.16;5094593;22;20205;-78
2022/01/05 10:09:14;;;;;;;32.40;17.07;;;;;;;5.43;100.00;98203.31;5114377;22;20845;-81
2022/01/05 10:11:41;;;;;;;32.97;17.77;;;;;;;5.37;100.00;98196.09;5108081;22;20202;-78
2022/01/05 10:14:11;;;;;;;29.17;17.40;;;;;;;5.19;100.00;98188.34;5074073;22;20208;-78
2022/01/05 10:16:39;;;;;;;31.40;17.63;;;;;;;4.97;100.00;98200.38;5103008;22;20255;-81
2022/01/05 10:19:08;;;;;;;31.93;17.57;;;;;;;4.97;100.00;98205.66;5096831;22;20212;-78
2022/01/05 10:21:36;;;;;;;28.20;17.17;;;;;;;4.83;100.00;98194.78;5127771;22;20267;-78
2022/01/05 10:24:03;;;;;;;32.63;18.40;;;;;;;4.94;100.00;98193.63;5111948;22;21253;-77
2022/01/05 10:26:36;;;;;;;30.70;17.50;;;;;;;5.10;100.00;98203.34;5100812;22;20206;-77
2022/01/05 10:29:16;;;;;;;30.90;17.67;;;;;;;5.24;100.00;98207.13;5104857;22;20267;-79
2022/01/05 10:31:44;;;;;;;30.80;17.37;;;;;;;5.29;100.00;98195.09;5080871;22;20210;-79
2022/01/05 10:34:15;;;;;;;41.27;17.93;;;;;;;5.31;100.00;98187.00;5106073;22;20273;-78
2022/01/05 10:36:47;;;;;;;29.93;17.13;;;;;;;5.36;100.00;98183.88;5157558;22;20206;-76
2022/01/05 10:39:14;;;;;;;30.17;16.60;;;;;;;5.33;100.00;98187.66;5136008;22;20211;-87
2022/01/05 10:41:44;;;;;;;32.50;16.87;;;;;;;5.38;100.00;98182.72;5104856;22;20210;-77
2022/01/05 10:44:18;;;;;;;28.63;16.80;;;;;;;5.45;100.00;98180.22;5114254;22;20202;-76
2022/01/05 10:46:55;;;;;;;29.07;15.87;;;;;;;5.41;100.00;98177.13;5123199;22;21882;-77
2022/01/05 10:49:29;;;;;;;29.43;16.20;;;;;;;5.46;100.00;98182.72;5111599;22;26583;-77
2022/01/05 10:52:01;;;;;;;28.60;15.97;;;;;;;5.53;100.00;98163.59;5113039;22;20254;-78
2022/01/05 10:54:30;;;;;;;28.73;16.90;;;;;;;5.54;100.00;98181.84;5100953;22;20212;-79
2022/01/05 10:57:08;;;;;;;25.93;16.60;;;;;;;5.62;100.00;98181.00;5141031;22;20201;-79
2022/01/05 10:59:39;;;;;;;30.20;16.53;;;;;;;5.66;100.00;98164.66;5104233;22;20337;-78
2022/01/05 11:02:30;;;;;;;34.03;18.03;;;;;;;5.57;100.00;98164.88;5098492;22;20206;-76
2022/01/05 11:05:05;;;;;;;28.70;16.57;;;;;;;5.59;100.00;98170.81;5112184;22;20262;-81
2022/01/05 11:07:34;;;;;;;29.67;17.17;;;;;;;5.60;100.00;98170.63;5110349;22;21174;-77
2022/01/05 11:10:08;;;;;;;30.73;16.97;;;;;;;5.67;100.00;98166.34;5109291;22;21100;-78
2022/01/05 11:12:37;;;;;;;25.23;16.20;;;;;;;5.73;100.00;98156.91;5108126;22;20205;-77
2022/01/05 11:15:28;;;;;;;30.87;17.30;;;;;;;5.83;100.00;98148.78;5084163;22;20204;-77
2022/01/05 11:18:15;;;;;;;28.03;16.07;;;;;;;5.71;100.00;98135.97;5120381;22;20568;-76
2022/01/05 11:20:43;;;;;;;29.50;17.00;;;;;;;5.66;100.00;98142.75;5140352;22;20276;-76
2022/01/05 11:23:10;;;;;;;34.87;18.70;;;;;;;5.66;100.00;98137.47;5092248;22;20201;-77
2022/01/05 11:25:38;;;;;;;34.23;17.67;;;;;;;5.62;100.00;98141.44;5133690;22;20205;-77